sensor_id;sensor_type;location;lat;lon;timestamp;pressure;altitude;pressure_sealevel;temperature
68127;BMP180;54931;52.098;21.006;2023-04-03T00:01:28;100733.40;;;1.50
68127;BMP180;54931;52.098;21.006;2023-04-03T00:03:57;100733.20;;;1.50
68127;BMP180;54931;52.098;21.006;2023-04-03T00:06:24;100734.80;;;1.50
68127;BMP180;54931;52.098;21.006;2023-04-03T00:08:52;100736.40;;;1.40
68127;BMP180;54931;52.098;21.006;2023-04-03T00:11:20;100734.00;;;1.40
68127;BMP180;54931;52.098;21.006;2023-04-03T00:13:49;100736.40;;;1.40
68127;BMP180;54931;52.098;21.006;2023-04-03T00:16:17;100731.20;;;1.30
68127;BMP180;54931;52.098;21.006;2023-04-03T00:18:44;100735.00;;;1.30
68127;BMP180;54931;52.098;21.006;2023-04-03T00:21:13;100738.20;;;1.20
68127;BMP180;54931;52.098;21.006;2023-04-03T00:23:42;100741.20;;;1.20
68127;BMP180;54931;52.098;21.006;2023-04-03T00:26:10;100746.00;;;1.12
68127;BMP180;54931;52.098;21.006;2023-04-03T00:28:38;100746.80;;;1.10
68127;BMP180;54931;52.098;21.006;2023-04-03T00:31:06;100748.80;;;1.04
68127;BMP180;54931;52.098;21.006;2023-04-03T00:33:33;100748.00;;;1.00
68127;BMP180;54931;52.098;21.006;2023-04-03T00:36:12;100751.40;;;1.00
68127;BMP180;54931;52.098;21.006;2023-04-03T00:38:40;100743.00;;;0.90
68127;BMP180;54931;52.098;21.006;2023-04-03T00:41:07;100746.40;;;0.88
68127;BMP180;54931;52.098;21.006;2023-04-03T00:43:35;100750.20;;;0.80
68127;BMP180;54931;52.098;21.006;2023-04-03T00:46:03;100755.40;;;0.80
68127;BMP180;54931;52.098;21.006;2023-04-03T00:48:40;100754.40;;;0.72
68127;BMP180;54931;52.098;21.006;2023-04-03T00:51:13;100749.40;;;0.70
68127;BMP180;54931;52.098;21.006;2023-04-03T00:53:48;100756.20;;;0.70
68127;BMP180;54931;52.098;21.006;2023-04-03T00:56:21;100756.80;;;0.60
68127;BMP180;54931;52.098;21.006;2023-04-03T00:59:02;100761.20;;;0.60
68127;BMP180;54931;52.098;21.006;2023-04-03T01:01:32;100763.60;;;0.60
68127;BMP180;54931;52.098;21.006;2023-04-03T01:04:03;100762.80;;;0.50
68127;BMP180;54931;52.098;21.006;2023-04-03T01:06:36;100759.40;;;0.48
68127;BMP180;54931;52.098;21.006;2023-04-03T01:09:05;100763.20;;;0.40
68127;BMP180;54931;52.098;21.006;2023-04-03T01:11:33;100769.80;;;0.40
68127;BMP180;54931;52.098;21.006;2023-04-03T01:14:00;100765.40;;;0.38
68127;BMP180;54931;52.098;21.006;2023-04-03T01:16:29;100775.80;;;0.30
68127;BMP180;54931;52.098;21.006;2023-04-03T01:19:00;100770.40;;;0.30
68127;BMP180;54931;52.098;21.006;2023-04-03T01:22:26;100780.60;;;0.28
68127;BMP180;54931;52.098;21.006;2023-04-03T01:24:56;100782.80;;;0.18
68127;BMP180;54931;52.098;21.006;2023-04-03T01:27:24;100784.60;;;0.10
68127;BMP180;54931;52.098;21.006;2023-04-03T01:29:51;100791.80;;;0.10
68127;BMP180;54931;52.098;21.006;2023-04-03T01:32:19;100793.00;;;0.06
68127;BMP180;54931;52.098;21.006;2023-04-03T01:34:47;100793.40;;;0.00
68127;BMP180;54931;52.098;21.006;2023-04-03T01:37:15;100793.60;;;0.00
68127;BMP180;54931;52.098;21.006;2023-04-03T01:39:43;100791.60;;;0.00
68127;BMP180;54931;52.098;21.006;2023-04-03T01:42:10;100796.20;;;-0.02
68127;BMP180;54931;52.098;21.006;2023-04-03T01:44:38;100800.80;;;-0.10
68127;BMP180;54931;52.098;21.006;2023-04-03T01:47:07;100801.20;;;-0.10
68127;BMP180;54931;52.098;21.006;2023-04-03T01:49:35;100806.00;;;-0.10
68127;BMP180;54931;52.098;21.006;2023-04-03T01:52:02;100805.80;;;-0.12
68127;BMP180;54931;52.098;21.006;2023-04-03T01:54:30;100806.60;;;-0.20
68127;BMP180;54931;52.098;21.006;2023-04-03T01:56:58;100806.20;;;-0.20
68127;BMP180;54931;52.098;21.006;2023-04-03T01:59:26;100806.40;;;-0.28
68127;BMP180;54931;52.098;21.006;2023-04-03T02:01:53;100811.20;;;-0.30
68127;BMP180;54931;52.098;21.006;2023-04-03T02:04:22;100813.20;;;-0.30
68127;BMP180;54931;52.098;21.006;2023-04-03T02:06:49;100820.60;;;-0.30
68127;BMP180;54931;52.098;21.006;2023-04-03T02:09:17;100819.40;;;-0.40
68127;BMP180;54931;52.098;21.006;2023-04-03T02:11:46;100817.20;;;-0.40
68127;BMP180;54931;52.098;21.006;2023-04-03T02:14:14;100823.00;;;-0.48
68127;BMP180;54931;52.098;21.006;2023-04-03T02:16:41;100827.00;;;-0.50
68127;BMP180;54931;52.098;21.006;2023-04-03T02:19:09;100823.00;;;-0.50
68127;BMP180;54931;52.098;21.006;2023-04-03T02:21:37;100825.60;;;-0.56
68127;BMP180;54931;52.098;21.006;2023-04-03T02:24:05;100825.60;;;-0.60
68127;BMP180;54931;52.098;21.006;2023-04-03T02:26:33;100829.60;;;-0.60
68127;BMP180;54931;52.098;21.006;2023-04-03T02:29:00;100828.60;;;-0.60
68127;BMP180;54931;52.098;21.006;2023-04-03T02:31:28;100828.40;;;-0.68
68127;BMP180;54931;52.098;21.006;2023-04-03T02:33:55;100834.00;;;-0.70
68127;BMP180;54931;52.098;21.006;2023-04-03T02:36:23;100841.00;;;-0.70
68127;BMP180;54931;52.098;21.006;2023-04-03T02:38:50;100833.60;;;-0.72
68127;BMP180;54931;52.098;21.006;2023-04-03T02:41:18;100838.60;;;-0.70
68127;BMP180;54931;52.098;21.006;2023-04-03T02:43:45;100841.20;;;-0.74
68127;BMP180;54931;52.098;21.006;2023-04-03T02:46:13;100838.20;;;-0.80
68127;BMP180;54931;52.098;21.006;2023-04-03T02:48:42;100844.20;;;-0.80
68127;BMP180;54931;52.098;21.006;2023-04-03T02:51:10;100842.40;;;-0.90
68127;BMP180;54931;52.098;21.006;2023-04-03T02:53:38;100849.40;;;-0.90
68127;BMP180;54931;52.098;21.006;2023-04-03T02:56:05;100844.60;;;-0.96
68127;BMP180;54931;52.098;21.006;2023-04-03T02:58:33;100841.40;;;-1.00
68127;BMP180;54931;52.098;21.006;2023-04-03T03:01:01;100838.40;;;-1.00
68127;BMP180;54931;52.098;21.006;2023-04-03T03:03:29;100846.40;;;-1.02
68127;BMP180;54931;52.098;21.006;2023-04-03T03:06:05;100845.00;;;-1.00
68127;BMP180;54931;52.098;21.006;2023-04-03T03:08:36;100843.60;;;-1.00
68127;BMP180;54931;52.098;21.006;2023-04-03T03:11:04;100845.20;;;-1.10
68127;BMP180;54931;52.098;21.006;2023-04-03T03:13:32;100845.00;;;-1.10
68127;BMP180;54931;52.098;21.006;2023-04-03T03:16:01;100849.00;;;-1.10
68127;BMP180;54931;52.098;21.006;2023-04-03T03:18:29;100850.00;;;-1.16
68127;BMP180;54931;52.098;21.006;2023-04-03T03:21:00;100850.20;;;-1.20
68127;BMP180;54931;52.098;21.006;2023-04-03T03:23:31;100854.20;;;-1.20
68127;BMP180;54931;52.098;21.006;2023-04-03T03:26:03;100856.00;;;-1.24
68127;BMP180;54931;52.098;21.006;2023-04-03T03:28:32;100855.80;;;-1.30
68127;BMP180;54931;52.098;21.006;2023-04-03T03:31:00;100856.60;;;-1.30
68127;BMP180;54931;52.098;21.006;2023-04-03T03:33:28;100855.60;;;-1.30
68127;BMP180;54931;52.098;21.006;2023-04-03T03:35:57;100860.00;;;-1.30
68127;BMP180;54931;52.098;21.006;2023-04-03T03:38:25;100861.00;;;-1.30
68127;BMP180;54931;52.098;21.006;2023-04-03T03:40:52;100858.20;;;-1.30
68127;BMP180;54931;52.098;21.006;2023-04-03T03:43:21;100860.40;;;-1.30
68127;BMP180;54931;52.098;21.006;2023-04-03T03:45:52;100855.60;;;-1.38
68127;BMP180;54931;52.098;21.006;2023-04-03T03:48:21;100865.20;;;-1.40
68127;BMP180;54931;52.098;21.006;2023-04-03T03:50:49;100862.00;;;-1.40
68127;BMP180;54931;52.098;21.006;2023-04-03T03:53:17;100869.60;;;-1.46
68127;BMP180;54931;52.098;21.006;2023-04-03T03:55:45;100864.20;;;-1.44
68127;BMP180;54931;52.098;21.006;2023-04-03T03:58:12;100867.40;;;-1.50
68127;BMP180;54931;52.098;21.006;2023-04-03T04:00:40;100866.40;;;-1.50
68127;BMP180;54931;52.098;21.006;2023-04-03T04:03:07;100869.60;;;-1.50
68127;BMP180;54931;52.098;21.006;2023-04-03T04:05:35;100882.60;;;-1.50
68127;BMP180;54931;52.098;21.006;2023-04-03T04:08:03;100875.80;;;-1.50
68127;BMP180;54931;52.098;21.006;2023-04-03T04:10:30;100878.00;;;-1.50
68127;BMP180;54931;52.098;21.006;2023-04-03T04:12:58;100881.00;;;-1.50
68127;BMP180;54931;52.098;21.006;2023-04-03T04:15:26;100880.40;;;-1.50
68127;BMP180;54931;52.098;21.006;2023-04-03T04:17:54;100882.00;;;-1.50
68127;BMP180;54931;52.098;21.006;2023-04-03T04:20:23;100883.00;;;-1.50
68127;BMP180;54931;52.098;21.006;2023-04-03T04:22:50;100890.40;;;-1.50
68127;BMP180;54931;52.098;21.006;2023-04-03T04:25:18;100885.00;;;-1.50
68127;BMP180;54931;52.098;21.006;2023-04-03T04:27:49;100882.80;;;-1.50
68127;BMP180;54931;52.098;21.006;2023-04-03T04:30:16;100888.00;;;-1.50
68127;BMP180;54931;52.098;21.006;2023-04-03T04:32:44;100887.60;;;-1.50
68127;BMP180;54931;52.098;21.006;2023-04-03T04:35:12;100901.60;;;-1.50
68127;BMP180;54931;52.098;21.006;2023-04-03T04:37:42;100900.20;;;-1.50
68127;BMP180;54931;52.098;21.006;2023-04-03T04:40:10;100902.80;;;-1.50
68127;BMP180;54931;52.098;21.006;2023-04-03T04:42:38;100906.00;;;-1.50
68127;BMP180;54931;52.098;21.006;2023-04-03T04:45:06;100905.00;;;-1.50
68127;BMP180;54931;52.098;21.006;2023-04-03T04:47:35;100908.80;;;-1.50
68127;BMP180;54931;52.098;21.006;2023-04-03T04:50:03;100909.40;;;-1.50
68127;BMP180;54931;52.098;21.006;2023-04-03T04:52:31;100915.00;;;-1.50
68127;BMP180;54931;52.098;21.006;2023-04-03T04:54:59;100916.20;;;-1.50
68127;BMP180;54931;52.098;21.006;2023-04-03T04:57:27;100917.80;;;-1.50
68127;BMP180;54931;52.098;21.006;2023-04-03T04:59:55;100921.80;;;-1.50
68127;BMP180;54931;52.098;21.006;2023-04-03T05:02:23;100923.40;;;-1.44
68127;BMP180;54931;52.098;21.006;2023-04-03T05:04:51;100923.20;;;-1.42
68127;BMP180;54931;52.098;21.006;2023-04-03T05:07:19;100922.60;;;-1.40
68127;BMP180;54931;52.098;21.006;2023-04-03T05:09:46;100931.80;;;-1.40
68127;BMP180;54931;52.098;21.006;2023-04-03T05:12:14;100929.40;;;-1.40
68127;BMP180;54931;52.098;21.006;2023-04-03T05:14:42;100930.20;;;-1.40
68127;BMP180;54931;52.098;21.006;2023-04-03T05:17:09;100937.80;;;-1.38
68127;BMP180;54931;52.098;21.006;2023-04-03T05:19:37;100934.60;;;-1.30
68127;BMP180;54931;52.098;21.006;2023-04-03T05:22:05;100928.60;;;-1.30
68127;BMP180;54931;52.098;21.006;2023-04-03T05:24:32;100932.60;;;-1.20
68127;BMP180;54931;52.098;21.006;2023-04-03T05:27:00;100939.40;;;-1.10
68127;BMP180;54931;52.098;21.006;2023-04-03T05:29:28;100947.20;;;-1.08
68127;BMP180;54931;52.098;21.006;2023-04-03T05:31:55;100947.00;;;-0.90
68127;BMP180;54931;52.098;21.006;2023-04-03T05:34:23;100954.00;;;-0.70
68127;BMP180;54931;52.098;21.006;2023-04-03T05:36:51;100950.00;;;-0.60
68127;BMP180;54931;52.098;21.006;2023-04-03T05:39:18;100956.20;;;-0.40
68127;BMP180;54931;52.098;21.006;2023-04-03T05:41:46;100959.20;;;-0.26
68127;BMP180;54931;52.098;21.006;2023-04-03T05:44:14;100963.60;;;-0.10
68127;BMP180;54931;52.098;21.006;2023-04-03T05:46:42;100960.00;;;-0.10
68127;BMP180;54931;52.098;21.006;2023-04-03T05:49:09;100961.40;;;-0.10
68127;BMP180;54931;52.098;21.006;2023-04-03T05:51:39;100965.40;;;0.12
68127;BMP180;54931;52.098;21.006;2023-04-03T05:54:29;100958.60;;;0.50
68127;BMP180;54931;52.098;21.006;2023-04-03T05:56:57;100959.20;;;0.92
68127;BMP180;54931;52.098;21.006;2023-04-03T05:59:25;100961.00;;;1.30
68127;BMP180;54931;52.098;21.006;2023-04-03T06:01:52;100967.40;;;1.70
68127;BMP180;54931;52.098;21.006;2023-04-03T06:04:20;100964.20;;;1.82
68127;BMP180;54931;52.098;21.006;2023-04-03T06:06:55;100961.80;;;1.98
68127;BMP180;54931;52.098;21.006;2023-04-03T06:09:26;100966.80;;;2.20
68127;BMP180;54931;52.098;21.006;2023-04-03T06:11:57;100966.60;;;2.28
68127;BMP180;54931;52.098;21.006;2023-04-03T06:14:26;100968.80;;;2.40
68127;BMP180;54931;52.098;21.006;2023-04-03T06:16:55;100972.80;;;2.50
68127;BMP180;54931;52.098;21.006;2023-04-03T06:19:23;100975.80;;;2.60
68127;BMP180;54931;52.098;21.006;2023-04-03T06:21:50;100976.60;;;2.80
68127;BMP180;54931;52.098;21.006;2023-04-03T06:24:18;100983.60;;;3.02
68127;BMP180;54931;52.098;21.006;2023-04-03T06:26:47;100987.80;;;3.30
68127;BMP180;54931;52.098;21.006;2023-04-03T06:29:16;100983.80;;;3.34
68127;BMP180;54931;52.098;21.006;2023-04-03T06:31:44;100985.80;;;3.30
68127;BMP180;54931;52.098;21.006;2023-04-03T06:34:13;100995.20;;;3.26
68127;BMP180;54931;52.098;21.006;2023-04-03T06:36:41;100992.40;;;3.30
68127;BMP180;54931;52.098;21.006;2023-04-03T06:39:21;100997.00;;;3.50
68127;BMP180;54931;52.098;21.006;2023-04-03T06:41:51;100989.20;;;3.70
68127;BMP180;54931;52.098;21.006;2023-04-03T06:44:19;100994.20;;;3.70
68127;BMP180;54931;52.098;21.006;2023-04-03T06:46:46;100999.60;;;3.70
68127;BMP180;54931;52.098;21.006;2023-04-03T06:49:14;100999.60;;;3.80
68127;BMP180;54931;52.098;21.006;2023-04-03T06:51:42;101002.00;;;3.80
68127;BMP180;54931;52.098;21.006;2023-04-03T06:54:10;101013.40;;;3.90
68127;BMP180;54931;52.098;21.006;2023-04-03T06:56:38;101013.80;;;4.10
68127;BMP180;54931;52.098;21.006;2023-04-03T06:59:05;101009.60;;;4.22
68127;BMP180;54931;52.098;21.006;2023-04-03T07:01:33;101012.40;;;4.30
68127;BMP180;54931;52.098;21.006;2023-04-03T07:04:01;101021.40;;;4.30
68127;BMP180;54931;52.098;21.006;2023-04-03T07:06:29;101024.40;;;4.40
68127;BMP180;54931;52.098;21.006;2023-04-03T07:08:58;101031.20;;;4.50
68127;BMP180;54931;52.098;21.006;2023-04-03T07:11:27;101033.40;;;4.52
68127;BMP180;54931;52.098;21.006;2023-04-03T07:13:55;101034.80;;;4.66
68127;BMP180;54931;52.098;21.006;2023-04-03T07:16:23;101038.80;;;4.70
68127;BMP180;54931;52.098;21.006;2023-04-03T07:18:52;101036.60;;;4.70
68127;BMP180;54931;52.098;21.006;2023-04-03T07:21:19;101036.40;;;4.80
68127;BMP180;54931;52.098;21.006;2023-04-03T07:23:47;101041.00;;;5.10
68127;BMP180;54931;52.098;21.006;2023-04-03T07:26:15;101040.00;;;5.20
68127;BMP180;54931;52.098;21.006;2023-04-03T07:28:43;101038.80;;;5.30
68127;BMP180;54931;52.098;21.006;2023-04-03T07:31:12;101039.80;;;5.50
68127;BMP180;54931;52.098;21.006;2023-04-03T07:33:44;101038.80;;;5.50
68127;BMP180;54931;52.098;21.006;2023-04-03T07:36:17;101045.80;;;5.36
68127;BMP180;54931;52.098;21.006;2023-04-03T07:38:46;101053.80;;;5.50
68127;BMP180;54931;52.098;21.006;2023-04-03T07:41:18;101056.00;;;5.64
68127;BMP180;54931;52.098;21.006;2023-04-03T07:43:46;101056.40;;;5.80
68127;BMP180;54931;52.098;21.006;2023-04-03T07:46:14;101063.80;;;5.96
68127;BMP180;54931;52.098;21.006;2023-04-03T07:48:42;101059.60;;;6.10
68127;BMP180;54931;52.098;21.006;2023-04-03T07:51:09;101061.40;;;6.26
68127;BMP180;54931;52.098;21.006;2023-04-03T07:53:37;101057.20;;;6.20
68127;BMP180;54931;52.098;21.006;2023-04-03T07:56:05;101063.20;;;6.00
68127;BMP180;54931;52.098;21.006;2023-04-03T07:58:33;101062.40;;;6.10
68127;BMP180;54931;52.098;21.006;2023-04-03T08:01:00;101054.60;;;6.20
68127;BMP180;54931;52.098;21.006;2023-04-03T08:03:28;101061.00;;;6.20
68127;BMP180;54931;52.098;21.006;2023-04-03T08:06:02;101056.60;;;6.10
68127;BMP180;54931;52.098;21.006;2023-04-03T08:08:31;101059.80;;;6.10
68127;BMP180;54931;52.098;21.006;2023-04-03T08:11:00;101058.60;;;6.08
68127;BMP180;54931;52.098;21.006;2023-04-03T08:13:30;101059.00;;;6.02
68127;BMP180;54931;52.098;21.006;2023-04-03T08:15:57;101055.60;;;6.04
68127;BMP180;54931;52.098;21.006;2023-04-03T08:18:28;101060.40;;;6.16
68127;BMP180;54931;52.098;21.006;2023-04-03T08:20:55;101061.20;;;6.20
68127;BMP180;54931;52.098;21.006;2023-04-03T08:23:23;101061.20;;;6.00
68127;BMP180;54931;52.098;21.006;2023-04-03T08:25:50;101065.40;;;6.10
68127;BMP180;54931;52.098;21.006;2023-04-03T08:28:18;101069.00;;;5.90
68127;BMP180;54931;52.098;21.006;2023-04-03T08:30:45;101070.20;;;5.82
68127;BMP180;54931;52.098;21.006;2023-04-03T08:33:13;101074.80;;;5.70
68127;BMP180;54931;52.098;21.006;2023-04-03T08:35:41;101072.00;;;5.80
68127;BMP180;54931;52.098;21.006;2023-04-03T08:38:09;101073.20;;;5.90
68127;BMP180;54931;52.098;21.006;2023-04-03T08:40:38;101069.40;;;6.00
68127;BMP180;54931;52.098;21.006;2023-04-03T08:43:50;101069.00;;;6.16
68127;BMP180;54931;52.098;21.006;2023-04-03T08:46:14;101071.80;;;6.50
68127;BMP180;54931;52.098;21.006;2023-04-03T08:48:43;101072.60;;;6.70
68127;BMP180;54931;52.098;21.006;2023-04-03T08:51:17;101075.20;;;6.68
68127;BMP180;54931;52.098;21.006;2023-04-03T08:53:57;101083.40;;;6.80
68127;BMP180;54931;52.098;21.006;2023-04-03T08:56:26;101072.60;;;6.80
68127;BMP180;54931;52.098;21.006;2023-04-03T08:59:00;101069.80;;;6.80
68127;BMP180;54931;52.098;21.006;2023-04-03T09:01:39;101064.80;;;6.80
68127;BMP180;54931;52.098;21.006;2023-04-03T09:04:16;101072.20;;;6.86
68127;BMP180;54931;52.098;21.006;2023-04-03T09:06:48;101072.60;;;7.00
68127;BMP180;54931;52.098;21.006;2023-04-03T09:09:38;101070.20;;;6.70
68127;BMP180;54931;52.098;21.006;2023-04-03T09:12:22;101078.80;;;6.16
68127;BMP180;54931;52.098;21.006;2023-04-03T09:14:57;101076.40;;;5.78
68127;BMP180;54931;52.098;21.006;2023-04-03T09:17:55;101074.60;;;5.46
68127;BMP180;54931;52.098;21.006;2023-04-03T09:23:38;101074.20;;;6.08
68127;BMP180;54931;52.098;21.006;2023-04-03T09:26:14;101066.00;;;6.60
68127;BMP180;54931;52.098;21.006;2023-04-03T09:28:43;101071.00;;;6.96
68127;BMP180;54931;52.098;21.006;2023-04-03T09:31:21;101073.60;;;7.36
68127;BMP180;54931;52.098;21.006;2023-04-03T09:33:53;101081.80;;;7.60
68127;BMP180;54931;52.098;21.006;2023-04-03T09:36:57;101080.80;;;7.60
68127;BMP180;54931;52.098;21.006;2023-04-03T09:39:28;101080.00;;;7.70
68127;BMP180;54931;52.098;21.006;2023-04-03T09:42:05;101083.40;;;7.62
68127;BMP180;54931;52.098;21.006;2023-04-03T09:44:37;101081.80;;;7.30
68127;BMP180;54931;52.098;21.006;2023-04-03T09:47:26;101085.40;;;7.08
68127;BMP180;54931;52.098;21.006;2023-04-03T09:52:42;101082.60;;;7.00
68127;BMP180;54931;52.098;21.006;2023-04-03T09:55:25;101078.40;;;7.20
68127;BMP180;54931;52.098;21.006;2023-04-03T09:57:59;101080.80;;;7.68
68127;BMP180;54931;52.098;21.006;2023-04-03T10:00:37;101089.40;;;7.60
68127;BMP180;54931;52.098;21.006;2023-04-03T10:03:25;101090.20;;;7.26
68127;BMP180;54931;52.098;21.006;2023-04-03T10:05:54;101098.80;;;6.90
68127;BMP180;54931;52.098;21.006;2023-04-03T10:08:25;101102.40;;;6.52
68127;BMP180;54931;52.098;21.006;2023-04-03T10:11:15;101097.00;;;6.30
68127;BMP180;54931;52.098;21.006;2023-04-03T10:13:52;101099.80;;;6.00
68127;BMP180;54931;52.098;21.006;2023-04-03T10:16:24;101097.40;;;5.80
68127;BMP180;54931;52.098;21.006;2023-04-03T10:19:20;101099.80;;;6.00
68127;BMP180;54931;52.098;21.006;2023-04-03T10:21:59;101106.60;;;6.36
68127;BMP180;54931;52.098;21.006;2023-04-03T10:24:34;101096.80;;;6.66
68127;BMP180;54931;52.098;21.006;2023-04-03T10:27:10;101091.40;;;7.20
68127;BMP180;54931;52.098;21.006;2023-04-03T10:38:04;101095.20;;;8.20
68127;BMP180;54931;52.098;21.006;2023-04-03T10:40:46;101089.20;;;8.10
68127;BMP180;54931;52.098;21.006;2023-04-03T10:43:25;101095.00;;;8.26
68127;BMP180;54931;52.098;21.006;2023-04-03T10:51:25;101073.80;;;8.20
68127;BMP180;54931;52.098;21.006;2023-04-03T10:56:31;101083.40;;;8.04
68127;BMP180;54931;52.098;21.006;2023-04-03T10:59:30;101082.20;;;8.00
68127;BMP180;54931;52.098;21.006;2023-04-03T11:02:25;101084.40;;;7.90
68127;BMP180;54931;52.098;21.006;2023-04-03T11:05:15;101083.60;;;7.50
68127;BMP180;54931;52.098;21.006;2023-04-03T11:07:48;101073.20;;;7.70
68127;BMP180;54931;52.098;21.006;2023-04-03T11:10:25;101078.00;;;7.80
68127;BMP180;54931;52.098;21.006;2023-04-03T11:13:22;101078.80;;;7.90
68127;BMP180;54931;52.098;21.006;2023-04-03T11:15:53;101072.20;;;7.92
68127;BMP180;54931;52.098;21.006;2023-04-03T11:18:28;101065.80;;;7.80
68127;BMP180;54931;52.098;21.006;2023-04-03T11:21:06;101078.20;;;7.66
68127;BMP180;54931;52.098;21.006;2023-04-03T11:23:36;101081.20;;;7.32
68127;BMP180;54931;52.098;21.006;2023-04-03T11:26:20;101082.40;;;7.02
68127;BMP180;54931;52.098;21.006;2023-04-03T11:28:59;101077.80;;;6.70
68127;BMP180;54931;52.098;21.006;2023-04-03T11:34:49;101079.60;;;6.00
68127;BMP180;54931;52.098;21.006;2023-04-03T11:40:08;101079.40;;;6.10
68127;BMP180;54931;52.098;21.006;2023-04-03T11:45:58;101069.80;;;6.60
68127;BMP180;54931;52.098;21.006;2023-04-03T11:51:01;101075.20;;;6.40
68127;BMP180;54931;52.098;21.006;2023-04-03T11:53:36;101079.00;;;6.10
68127;BMP180;54931;52.098;21.006;2023-04-03T12:01:56;101065.00;;;5.98
68127;BMP180;54931;52.098;21.006;2023-04-03T12:04:27;101070.20;;;6.30
68127;BMP180;54931;52.098;21.006;2023-04-03T12:07:16;101073.60;;;6.30
68127;BMP180;54931;52.098;21.006;2023-04-03T12:12:38;101068.80;;;6.10
68127;BMP180;54931;52.098;21.006;2023-04-03T12:18:40;101070.20;;;5.90
68127;BMP180;54931;52.098;21.006;2023-04-03T12:21:12;101057.60;;;5.70
68127;BMP180;54931;52.098;21.006;2023-04-03T12:35:35;101058.60;;;6.10
68127;BMP180;54931;52.098;21.006;2023-04-03T12:38:30;101054.60;;;6.30
68127;BMP180;54931;52.098;21.006;2023-04-03T12:41:38;101053.60;;;6.46
68127;BMP180;54931;52.098;21.006;2023-04-03T12:47:36;101059.80;;;6.80
68127;BMP180;54931;52.098;21.006;2023-04-03T12:50:22;101055.40;;;6.80
68127;BMP180;54931;52.098;21.006;2023-04-03T12:52:59;101059.20;;;6.80
68127;BMP180;54931;52.098;21.006;2023-04-03T12:55:28;101061.40;;;6.90
68127;BMP180;54931;52.098;21.006;2023-04-03T12:57:57;101060.80;;;6.90
68127;BMP180;54931;52.098;21.006;2023-04-03T13:00:32;101062.20;;;6.80
68127;BMP180;54931;52.098;21.006;2023-04-03T13:03:06;101062.00;;;6.60
68127;BMP180;54931;52.098;21.006;2023-04-03T13:05:44;101066.20;;;6.50
68127;BMP180;54931;52.098;21.006;2023-04-03T13:08:14;101067.00;;;6.50
68127;BMP180;54931;52.098;21.006;2023-04-03T13:10:59;101063.00;;;6.30
68127;BMP180;54931;52.098;21.006;2023-04-03T13:13:28;101064.00;;;6.10
68127;BMP180;54931;52.098;21.006;2023-04-03T13:15:58;101059.20;;;6.00
68127;BMP180;54931;52.098;21.006;2023-04-03T13:18:33;101060.20;;;6.00
68127;BMP180;54931;52.098;21.006;2023-04-03T13:21:14;101054.60;;;5.90
68127;BMP180;54931;52.098;21.006;2023-04-03T13:23:48;101054.00;;;5.82
68127;BMP180;54931;52.098;21.006;2023-04-03T13:26:18;101056.60;;;5.80
68127;BMP180;54931;52.098;21.006;2023-04-03T13:28:48;101053.20;;;5.70
68127;BMP180;54931;52.098;21.006;2023-04-03T13:31:26;101053.20;;;5.70
68127;BMP180;54931;52.098;21.006;2023-04-03T13:34:10;101051.40;;;5.80
68127;BMP180;54931;52.098;21.006;2023-04-03T13:36:46;101050.40;;;5.90
68127;BMP180;54931;52.098;21.006;2023-04-03T13:39:30;101051.80;;;6.00
68127;BMP180;54931;52.098;21.006;2023-04-03T13:42:01;101048.20;;;6.28
68127;BMP180;54931;52.098;21.006;2023-04-03T13:44:36;101044.20;;;6.30
68127;BMP180;54931;52.098;21.006;2023-04-03T13:47:21;101043.80;;;6.40
68127;BMP180;54931;52.098;21.006;2023-04-03T13:53:03;101050.00;;;6.10
68127;BMP180;54931;52.098;21.006;2023-04-03T13:56:04;101051.60;;;6.00
68127;BMP180;54931;52.098;21.006;2023-04-03T13:58:33;101051.00;;;5.90
68127;BMP180;54931;52.098;21.006;2023-04-03T14:02:06;101053.00;;;5.80
68127;BMP180;54931;52.098;21.006;2023-04-03T14:07:08;101058.00;;;5.60
68127;BMP180;54931;52.098;21.006;2023-04-03T14:09:37;101050.60;;;5.88
68127;BMP180;54931;52.098;21.006;2023-04-03T14:12:16;101055.40;;;5.80
68127;BMP180;54931;52.098;21.006;2023-04-03T14:14:46;101051.40;;;5.60
68127;BMP180;54931;52.098;21.006;2023-04-03T14:17:20;101053.80;;;5.50
68127;BMP180;54931;52.098;21.006;2023-04-03T14:19:51;101053.20;;;5.44
68127;BMP180;54931;52.098;21.006;2023-04-03T14:22:23;101061.20;;;5.40
68127;BMP180;54931;52.098;21.006;2023-04-03T14:24:53;101055.40;;;5.40
68127;BMP180;54931;52.098;21.006;2023-04-03T14:27:29;101059.20;;;5.40
68127;BMP180;54931;52.098;21.006;2023-04-03T14:30:01;101049.40;;;5.40
68127;BMP180;54931;52.098;21.006;2023-04-03T14:32:31;101050.80;;;5.30
68127;BMP180;54931;52.098;21.006;2023-04-03T14:34:58;101050.60;;;5.30
68127;BMP180;54931;52.098;21.006;2023-04-03T14:37:30;101052.20;;;5.40
68127;BMP180;54931;52.098;21.006;2023-04-03T14:40:00;101056.60;;;5.40
68127;BMP180;54931;52.098;21.006;2023-04-03T14:42:33;101053.60;;;5.30
68127;BMP180;54931;52.098;21.006;2023-04-03T14:45:06;101054.60;;;5.20
68127;BMP180;54931;52.098;21.006;2023-04-03T14:47:49;101054.40;;;5.10
68127;BMP180;54931;52.098;21.006;2023-04-03T14:50:26;101059.80;;;4.98
68127;BMP180;54931;52.098;21.006;2023-04-03T14:52:58;101055.00;;;4.90
68127;BMP180;54931;52.098;21.006;2023-04-03T14:55:27;101054.00;;;4.80
68127;BMP180;54931;52.098;21.006;2023-04-03T14:57:55;101057.80;;;4.80
68127;BMP180;54931;52.098;21.006;2023-04-03T15:00:23;101065.80;;;4.80
68127;BMP180;54931;52.098;21.006;2023-04-03T15:02:51;101058.20;;;4.70
68127;BMP180;54931;52.098;21.006;2023-04-03T15:05:19;101056.20;;;4.70
68127;BMP180;54931;52.098;21.006;2023-04-03T15:07:52;101057.40;;;4.60
68127;BMP180;54931;52.098;21.006;2023-04-03T15:10:29;101054.80;;;4.60
68127;BMP180;54931;52.098;21.006;2023-04-03T15:12:57;101056.40;;;4.50
68127;BMP180;54931;52.098;21.006;2023-04-03T15:15:29;101057.60;;;4.50
68127;BMP180;54931;52.098;21.006;2023-04-03T15:17:58;101055.00;;;4.50
68127;BMP180;54931;52.098;21.006;2023-04-03T15:20:28;101052.40;;;4.50
68127;BMP180;54931;52.098;21.006;2023-04-03T15:22:58;101050.00;;;4.50
68127;BMP180;54931;52.098;21.006;2023-04-03T15:25:29;101054.00;;;4.50
68127;BMP180;54931;52.098;21.006;2023-04-03T15:27:59;101049.40;;;4.50